Hlavní strana
METAR-TAF:

METAR-TAF

Letiště :

Bloomington, Indiana, Spojené státy americké

zeměpisná šířka: 39-08-35N, zeměpisná délka: 086-37-00W, výška: 257 m

Aktuální stav počasí

Zpráva byla vytvořena před 35 minutami, v 22:53 UTC
Severní vítr 17 kt s nárazy do 39 kt
Teplota 7°C
Vlhkost vzduchu 53%
Tlak 1019 hPa
Viditelnost: 16.1 km
Oblačno až skoro zataženo ve výšce 8000 ft

METAR: KBMG 202253Z 35017G39KT 10SM BKN080 07/M02 A3008 RMK AO2 PK WND 36039/2244 PRESRR SLP185 T00671017

Čas: 19:28 (23:28 UTC)

Předpověď počasí

Zpráva byla vytvořena před 3 hodinami a 0 minutami, v 20:28 UTC
Předpověď platná od 20 v 20 UTC do 21 v 18 UTC
Západoseverozápadní vítr 18 kt s nárazy do 36 kt
Viditelnost: 10 km
Polojasno ve výšce 6000 ft
Od 20 v 2300 UTC
Severozápadní vítr 17 kt s nárazy do 32 kt
Viditelnost: 10 km
Polojasno ve výšce 25000 ft
Od 21 v 0500 UTC
Severozápadní vítr 7 kt
Viditelnost: 10 km
Jasno

TAF: KBMG 202028Z 2020/2118 30018G36KT P6SM SCT060 FM202300 32017G32KT P6SM SCT250 FM210500 32007KT P6SM SKC

Stav a předpovědi počasí z více než 4 000 letišť (zprávy METAR a TAF).

Červené a žluté tečky na mapě představují dostupné meteorologické stanice.

Když kurzor umístíte na tečku, zobrazí se název stanice.

Pak kliknutím zobrazíte stav a předpověď počasí.

Chcete-li změnit mapu, kliknutím na zelené tlačítko se znaménkem +mapu přiblížíte, kliknutím na zelené tlačítko se znaménkem – mapu oddálíte a kliknutím na zelené šipky přejdete na sousední mapy.


METAR-TAF: